Mugan — 9HA2962 — position and weather

sailwx.info

Track history (hours):
 
Tides and Currents Weather Stations Pressure Air Temp Water Temp Dewpoint Dewpoint Depression Visibility Wind Speed Wind Dir Waves Ship Positions

Mugan

Last reported at 2018-Apr-22 15:51 UTC. Time now 2018-Apr-23 21:13 UTC.
Position N 41°05' E 001°15'.

Length 140 m; draft 3.4 m.

Type: Ship. MMSI: 256914000.

Date/timePositionNaut miles runAvg speedWind from/ knotsBaromVisibWave heightAir tempDewpointWater temp
2018-Apr-22 15:51N 41°05' E 001°15'121 4.5
2018-Apr-21 12:56N 39°25' W 000°15'3 6.9
2018-Apr-21 12:30N 39°27' W 000°19'0 0.1
2018-Apr-21 09:57N 39°27' W 000°19'1 2.9
2018-Apr-21 09:29N 39°26' W 000°18'1 1.9
2018-Apr-21 09:00N 39°25' W 000°17'4 4.7
2018-Apr-21 08:13N 39°24' W 000°12'100 7.0
2018-Apr-20 18:02N 37°44' W 000°22'0 8.1
2018-Apr-20 18:00N 37°44' W 000°22'4 8.2
2018-Apr-20 17:28N 37°40' W 000°25'4 8.2
2018-Apr-20 17:00N 37°37' W 000°27'4 8.2
2018-Apr-20 16:30N 37°34' W 000°30'4 7.4
2018-Apr-20 15:58N 37°32' W 000°35'5 7.8
2018-Apr-20 15:21N 37°31' W 000°41'3 7.9
2018-Apr-20 15:00N 37°31' W 000°44'4 7.8
2018-Apr-20 14:29N 37°31' W 000°49'14 0.4
2018-Apr-19 01:58N 37°33' W 001°06'7 4.6
2018-Apr-19 00:27N 37°32' W 000°58'4 8.2
2018-Apr-18 23:58N 37°31' W 000°53'4 8.1
2018-Apr-18 23:30N 37°31' W 000°48'4 8.4
2018-Apr-18 23:00N 37°32' W 000°43'4 8.6
2018-Apr-18 22:30N 37°32' W 000°38'7 8.1
2018-Apr-18 21:35N 37°37' W 000°31'1 8.7
2018-Apr-18 21:30N 37°38' W 000°30'4 8.6
2018-Apr-18 21:00N 37°42' W 000°27'4 8.4
2018-Apr-18 20:30N 37°45' W 000°24'8 8.4
2018-Apr-18 19:30N 37°52' W 000°19'4 8.4
2018-Apr-18 19:00N 37°56' W 000°16'4 8.5
2018-Apr-18 18:30N 37°60' W 000°13'4 8.6
2018-Apr-18 18:00N 38°03' W 000°10'4 8.4
2018-Apr-18 17:30N 38°07' W 000°07'4 8.6
2018-Apr-18 17:00N 38°10' W 000°04'4 8.7
2018-Apr-18 16:30N 38°14' W 000°01'4 8.6
2018-Apr-18 15:59N 38°18' E 000°02'4 8.4
2018-Apr-18 15:29N 38°21' E 000°05'4 8.3
2018-Apr-18 15:00N 38°25' E 000°08'4 8.5
2018-Apr-18 14:29N 38°28' E 000°11'5 8.6
2018-Apr-18 13:56N 38°32' E 000°14'4 8.7
2018-Apr-18 13:30N 38°35' E 000°17'6 8.6
2018-Apr-18 12:45N 38°41' E 000°21'2 8.5
2018-Apr-18 12:30N 38°43' E 000°22'4 8.7
2018-Apr-18 12:00N 38°47' E 000°25'  
Track history (hours):
 
Tides and Currents Weather Stations Pressure Air Temp Water Temp Dewpoint Dewpoint Depression Visibility Wind Speed Wind Dir Waves Ship Positions

Mugan

Last reported at 2018-Apr-22 15:51 UTC. Time now 2018-Apr-23 21:13 UTC.
Position N 41°05' E 001°15'.

Length 140 m; draft 3.4 m.

Type: Ship. MMSI: 256914000.

Date/timePositionNaut miles runAvg speedWind from/ knotsBaromVisibWave heightAir tempDewpointWater temp
2018-Apr-22 15:51N 41°05' E 001°15'121 4.5
2018-Apr-21 12:56N 39°25' W 000°15'3 6.9
2018-Apr-21 12:30N 39°27' W 000°19'0 0.1
2018-Apr-21 09:57N 39°27' W 000°19'1 2.9
2018-Apr-21 09:29N 39°26' W 000°18'1 1.9
2018-Apr-21 09:00N 39°25' W 000°17'4 4.7
2018-Apr-21 08:13N 39°24' W 000°12'100 7.0
2018-Apr-20 18:02N 37°44' W 000°22'0 8.1
2018-Apr-20 18:00N 37°44' W 000°22'4 8.2
2018-Apr-20 17:28N 37°40' W 000°25'4 8.2
2018-Apr-20 17:00N 37°37' W 000°27'4 8.2
2018-Apr-20 16:30N 37°34' W 000°30'4 7.4
2018-Apr-20 15:58N 37°32' W 000°35'5 7.8
2018-Apr-20 15:21N 37°31' W 000°41'3 7.9
2018-Apr-20 15:00N 37°31' W 000°44'4 7.8
2018-Apr-20 14:29N 37°31' W 000°49'14 0.4
2018-Apr-19 01:58N 37°33' W 001°06'7 4.6
2018-Apr-19 00:27N 37°32' W 000°58'4 8.2
2018-Apr-18 23:58N 37°31' W 000°53'4 8.1
2018-Apr-18 23:30N 37°31' W 000°48'4 8.4
2018-Apr-18 23:00N 37°32' W 000°43'4 8.6
2018-Apr-18 22:30N 37°32' W 000°38'7 8.1
2018-Apr-18 21:35N 37°37' W 000°31'1 8.7
2018-Apr-18 21:30N 37°38' W 000°30'4 8.6
2018-Apr-18 21:00N 37°42' W 000°27'4 8.4
2018-Apr-18 20:30N 37°45' W 000°24'8 8.4
2018-Apr-18 19:30N 37°52' W 000°19'4 8.4
2018-Apr-18 19:00N 37°56' W 000°16'4 8.5
2018-Apr-18 18:30N 37°60' W 000°13'4 8.6
2018-Apr-18 18:00N 38°03' W 000°10'4 8.4
2018-Apr-18 17:30N 38°07' W 000°07'4 8.6
2018-Apr-18 17:00N 38°10' W 000°04'4 8.7
2018-Apr-18 16:30N 38°14' W 000°01'4 8.6
2018-Apr-18 15:59N 38°18' E 000°02'4 8.4
2018-Apr-18 15:29N 38°21' E 000°05'4 8.3
2018-Apr-18 15:00N 38°25' E 000°08'4 8.5
2018-Apr-18 14:29N 38°28' E 000°11'5 8.6
2018-Apr-18 13:56N 38°32' E 000°14'4 8.7
2018-Apr-18 13:30N 38°35' E 000°17'6 8.6
2018-Apr-18 12:45N 38°41' E 000°21'2 8.5
2018-Apr-18 12:30N 38°43' E 000°22'4 8.7
2018-Apr-18 12:00N 38°47' E 000°25'  

Dump ship's entire track history